createdAt,value
2022-08-26T00:00:20.855Z,13.43
2022-08-26T00:02:49.407Z,13.48
2022-08-26T00:05:18.030Z,13.52
2022-08-26T00:07:46.457Z,12.23
2022-08-26T00:10:15.605Z,13.23
2022-08-26T00:12:44.058Z,12.88
2022-08-26T00:15:17.004Z,12.70
2022-08-26T00:17:45.460Z,14.48
2022-08-26T00:20:19.976Z,13.38
2022-08-26T00:22:48.796Z,14.07
2022-08-26T00:25:18.027Z,14.07
2022-08-26T00:27:47.490Z,14.77
2022-08-26T00:30:22.875Z,14.98
2022-08-26T00:32:52.939Z,15.93
2022-08-26T00:35:22.804Z,16.50
2022-08-26T00:37:51.365Z,15.45
2022-08-26T00:40:23.478Z,16.08
2022-08-26T00:42:52.930Z,14.02
2022-08-26T00:45:23.319Z,14.85
2022-08-26T00:47:55.579Z,15.07
2022-08-26T00:50:28.220Z,15.63
2022-08-26T00:52:59.122Z,14.18
2022-08-26T00:55:37.751Z,15.25
2022-08-26T00:58:08.554Z,13.70
2022-08-26T01:00:38.387Z,14.98
2022-08-26T01:03:11.506Z,15.20
2022-08-26T01:05:42.402Z,15.82
2022-08-26T01:08:11.282Z,16.98
2022-08-26T01:10:40.708Z,16.75
2022-08-26T01:13:11.450Z,15.77
2022-08-26T01:15:48.683Z,16.67
2022-08-26T01:18:17.252Z,16.38
2022-08-26T01:20:57.789Z,16.02
2022-08-26T01:23:34.280Z,15.50
2022-08-26T01:26:19.502Z,15.27
2022-08-26T01:28:51.673Z,14.57
2022-08-26T01:31:45.497Z,14.30
2022-08-26T01:34:21.350Z,15.60
2022-08-26T01:36:51.812Z,15.43
2022-08-26T01:39:21.909Z,15.57
2022-08-26T01:41:53.748Z,15.57
2022-08-26T01:44:26.932Z,15.38
2022-08-26T01:46:58.676Z,14.20
2022-08-26T01:49:29.184Z,14.10
2022-08-26T01:52:02.184Z,14.73
2022-08-26T01:54:33.720Z,15.82
2022-08-26T01:57:03.177Z,16.13
2022-08-26T01:59:32.139Z,15.25
2022-08-26T02:02:00.535Z,14.63
2022-08-26T02:04:33.564Z,16.17
2022-08-26T02:07:06.288Z,15.68
2022-08-26T02:09:41.299Z,14.05
2022-08-26T02:12:11.901Z,14.25
2022-08-26T02:14:44.406Z,15.27
2022-08-26T02:17:13.237Z,13.95
2022-08-26T02:19:46.528Z,14.50
2022-08-26T02:22:19.772Z,15.70
2022-08-26T02:24:52.532Z,14.25
2022-08-26T02:27:23.877Z,14.23
2022-08-26T02:29:56.652Z,16.38
2022-08-26T02:32:25.787Z,13.95
2022-08-26T02:34:55.890Z,14.13
2022-08-26T02:37:24.419Z,15.23
2022-08-26T02:39:55.221Z,16.05
2022-08-26T02:42:23.906Z,15.80
2022-08-26T02:44:53.463Z,16.60
2022-08-26T02:47:24.914Z,18.83
2022-08-26T02:49:53.550Z,18.02
2022-08-26T02:52:22.188Z,18.88
2022-08-26T02:54:50.656Z,17.38
2022-08-26T02:57:20.772Z,18.98
2022-08-26T02:59:50.583Z,19.17
2022-08-26T03:02:19.086Z,20.33
2022-08-26T03:04:57.787Z,18.75
2022-08-26T03:07:32.111Z,18.00
2022-08-26T03:10:00.864Z,19.15
2022-08-26T03:12:30.638Z,17.75
2022-08-26T03:14:58.973Z,19.40
2022-08-26T03:17:27.466Z,17.88
2022-08-26T03:19:57.230Z,18.58
2022-08-26T03:22:27.124Z,19.73
2022-08-26T03:24:55.916Z,18.80
2022-08-26T03:27:24.339Z,20.45
2022-08-26T03:30:11.848Z,18.85
2022-08-26T03:32:41.500Z,18.65
2022-08-26T03:35:10.676Z,21.35
2022-08-26T03:37:39.725Z,20.27
2022-08-26T03:40:10.503Z,18.95
2022-08-26T03:42:40.906Z,20.33
2022-08-26T03:45:17.053Z,18.60
2022-08-26T03:47:45.772Z,19.92
2022-08-26T03:50:17.619Z,19.17
2022-08-26T03:52:51.999Z,18.52
2022-08-26T03:55:23.771Z,19.30
2022-08-26T03:57:52.394Z,19.35
2022-08-26T04:00:22.626Z,18.80
2022-08-26T04:02:53.370Z,19.27
2022-08-26T04:05:23.431Z,20.05
2022-08-26T04:07:52.956Z,17.67
2022-08-26T04:10:28.758Z,19.95
2022-08-26T04:15:29.740Z,20.42
2022-08-26T04:17:58.426Z,21.23
2022-08-26T04:20:27.001Z,19.08
2022-08-26T04:22:55.426Z,19.38
2022-08-26T04:25:24.338Z,19.45
2022-08-26T04:27:52.991Z,19.48
2022-08-26T04:30:22.065Z,19.65
2022-08-26T04:32:51.931Z,19.27
2022-08-26T04:35:25.775Z,17.88
2022-08-26T04:37:55.607Z,20.23
2022-08-26T04:40:24.663Z,18.70
2022-08-26T04:42:54.415Z,18.35
2022-08-26T04:45:23.074Z,17.40
2022-08-26T04:47:56.504Z,17.42
2022-08-26T04:50:26.789Z,17.75
2022-08-26T04:52:55.445Z,19.55
2022-08-26T04:55:38.425Z,19.92
2022-08-26T04:58:11.284Z,18.13
2022-08-26T05:00:40.510Z,18.50
2022-08-26T05:03:10.810Z,19.00
2022-08-26T05:05:41.368Z,17.85
2022-08-26T05:08:11.306Z,17.55
2022-08-26T05:10:44.571Z,17.30
2022-08-26T05:13:15.616Z,17.92
2022-08-26T05:15:45.571Z,16.65
2022-08-26T05:18:17.765Z,14.77
2022-08-26T05:20:50.225Z,15.52
2022-08-26T05:23:21.835Z,15.77
2022-08-26T05:25:54.767Z,15.73
2022-08-26T05:28:29.629Z,15.85
2022-08-26T05:30:58.630Z,16.58
2022-08-26T05:33:29.487Z,12.48
2022-08-26T05:35:57.891Z,15.15
2022-08-26T05:38:26.822Z,14.90
2022-08-26T05:40:59.072Z,12.80
2022-08-26T05:43:31.387Z,14.15
2022-08-26T05:46:08.140Z,12.07
2022-08-26T05:48:38.141Z,12.50
2022-08-26T05:51:09.487Z,11.95
2022-08-26T05:53:38.480Z,9.00
2022-08-26T05:56:08.275Z,12.63
2022-08-26T05:58:37.941Z,14.98
2022-08-26T06:01:10.370Z,15.32
2022-08-26T06:03:44.767Z,15.73
2022-08-26T06:06:16.130Z,13.80
2022-08-26T06:08:49.059Z,15.65
2022-08-26T06:11:19.894Z,15.52
2022-08-26T06:13:48.716Z,14.18
2022-08-26T06:16:18.702Z,15.32
2022-08-26T06:18:50.716Z,12.55
2022-08-26T06:21:24.148Z,15.35
2022-08-26T06:24:12.574Z,15.68
2022-08-26T06:26:42.794Z,13.57
2022-08-26T06:29:11.402Z,14.25
2022-08-26T06:31:44.262Z,17.70
2022-08-26T06:34:14.256Z,12.48
2022-08-26T06:36:44.845Z,12.57
2022-08-26T06:39:16.559Z,11.23
2022-08-26T06:41:46.523Z,10.10
2022-08-26T06:44:21.021Z,9.73
2022-08-26T06:46:50.473Z,9.70
2022-08-26T06:49:25.861Z,11.20
2022-08-26T06:51:58.556Z,8.18
2022-08-26T06:54:28.013Z,8.63
2022-08-26T06:56:57.632Z,9.00
2022-08-26T06:59:26.751Z,7.10
2022-08-26T07:01:55.585Z,7.45
2022-08-26T07:04:27.949Z,7.10
2022-08-26T07:06:57.427Z,8.45
2022-08-26T07:09:29.309Z,8.23
2022-08-26T07:11:58.184Z,8.48
2022-08-26T07:14:27.156Z,7.32
2022-08-26T07:16:56.140Z,7.30
2022-08-26T07:19:30.166Z,6.65
2022-08-26T07:22:03.651Z,9.10
2022-08-26T07:24:32.906Z,8.43
2022-08-26T07:27:02.803Z,8.35
2022-08-26T07:29:31.458Z,7.43
2022-08-26T07:32:00.426Z,11.45
2022-08-26T07:34:32.297Z,9.18
2022-08-26T07:37:02.299Z,7.60
2022-08-26T07:39:31.868Z,7.43
2022-08-26T07:42:03.848Z,7.60
2022-08-26T07:44:36.808Z,9.18
2022-08-26T07:47:10.052Z,7.97
2022-08-26T07:49:54.956Z,9.23
2022-08-26T07:52:26.589Z,7.47
2022-08-26T07:54:56.636Z,11.93
2022-08-26T07:57:25.217Z,8.27
2022-08-26T07:59:55.220Z,7.53
2022-08-26T08:02:24.755Z,8.43
2022-08-26T08:04:55.393Z,8.15
2022-08-26T08:07:38.694Z,8.43
2022-08-26T08:10:14.196Z,8.20
2022-08-26T08:12:42.731Z,8.43
2022-08-26T08:15:13.447Z,8.18
2022-08-26T08:17:42.993Z,8.15
2022-08-26T08:20:14.915Z,6.72
2022-08-26T08:22:43.817Z,7.68
2022-08-26T08:25:13.171Z,8.25
2022-08-26T08:27:43.252Z,7.93
2022-08-26T08:30:13.830Z,8.02
2022-08-26T08:32:44.555Z,7.20
2022-08-26T08:35:17.657Z,8.27
2022-08-26T08:37:46.739Z,7.93
2022-08-26T08:40:18.594Z,8.23
2022-08-26T08:45:27.463Z,9.43
2022-08-26T08:47:58.953Z,8.20
2022-08-26T08:50:32.486Z,11.32
2022-08-26T08:53:11.229Z,8.38
2022-08-26T08:55:49.994Z,8.15
2022-08-26T08:58:23.532Z,8.18
2022-08-26T09:01:00.185Z,8.05
2022-08-26T09:03:40.963Z,7.65
2022-08-26T09:06:17.513Z,7.72
2022-08-26T09:08:50.451Z,9.45
2022-08-26T09:11:21.341Z,9.30
2022-08-26T09:13:53.205Z,8.68
2022-08-26T09:16:26.194Z,7.97
2022-08-26T09:19:05.296Z,8.43
2022-08-26T09:21:35.286Z,8.85
2022-08-26T09:24:04.007Z,7.45
2022-08-26T09:26:45.520Z,8.40
2022-08-26T09:29:22.438Z,7.95
2022-08-26T09:31:51.193Z,9.15
2022-08-26T09:34:22.508Z,9.07
2022-08-26T09:36:54.715Z,8.30
2022-08-26T09:39:31.719Z,7.72
2022-08-26T09:42:06.232Z,7.95
2022-08-26T09:44:37.151Z,7.78
2022-08-26T09:47:06.966Z,9.05
2022-08-26T09:49:37.244Z,7.95
2022-08-26T09:52:16.453Z,7.93
2022-08-26T09:54:46.229Z,7.65
2022-08-26T09:57:18.845Z,8.50
2022-08-26T09:59:47.746Z,8.52
2022-08-26T10:02:37.437Z,7.72
2022-08-26T10:05:10.955Z,8.63
2022-08-26T10:07:45.229Z,9.52
2022-08-26T10:10:19.112Z,8.20
2022-08-26T10:12:54.359Z,8.13
2022-08-26T10:15:26.742Z,8.40
2022-08-26T10:18:21.237Z,7.80
2022-08-26T10:20:58.147Z,8.85
2022-08-26T10:23:32.568Z,7.55
2022-08-26T10:26:07.049Z,7.93
2022-08-26T10:28:41.517Z,6.82
2022-08-26T10:31:27.410Z,8.05
2022-08-26T10:34:00.343Z,7.93
2022-08-26T10:37:14.724Z,7.90
2022-08-26T10:39:53.004Z,7.53
2022-08-26T10:42:31.356Z,7.40
2022-08-26T10:45:07.615Z,7.78
2022-08-26T10:47:47.646Z,7.43
2022-08-26T10:50:18.005Z,6.88
2022-08-26T10:52:56.551Z,6.93
2022-08-26T10:55:34.697Z,7.00
2022-08-26T10:58:26.264Z,7.30
2022-08-26T11:01:22.735Z,7.30
2022-08-26T11:03:58.913Z,7.10
2022-08-26T11:06:29.804Z,7.20
2022-08-26T11:08:59.885Z,6.78
2022-08-26T11:11:50.758Z,7.30
2022-08-26T11:14:40.698Z,6.80
2022-08-26T11:17:55.456Z,6.40
2022-08-26T11:20:35.954Z,6.28
2022-08-26T11:23:50.812Z,7.18
2022-08-26T11:26:36.281Z,7.85
2022-08-26T11:29:13.563Z,6.68
2022-08-26T11:31:57.586Z,6.57
2022-08-26T11:35:02.221Z,5.50
2022-08-26T11:37:40.497Z,5.85
2022-08-26T11:40:13.334Z,6.43
2022-08-26T11:42:45.183Z,6.55
2022-08-26T11:45:24.001Z,5.93
2022-08-26T11:47:52.534Z,6.22
2022-08-26T11:50:26.166Z,6.28
2022-08-26T11:52:59.286Z,5.88
2022-08-26T11:55:27.751Z,5.78
2022-08-26T11:58:00.967Z,5.50
2022-08-26T12:00:34.473Z,5.85
2022-08-26T12:03:08.130Z,6.30
2022-08-26T12:05:43.591Z,6.47
2022-08-26T12:08:17.940Z,6.03
2022-08-26T12:10:46.429Z,6.72
2022-08-26T12:13:23.322Z,6.32
2022-08-26T12:15:56.820Z,6.78
2022-08-26T12:18:29.537Z,6.68
2022-08-26T12:21:01.706Z,7.30
2022-08-26T12:23:41.727Z,6.65
2022-08-26T12:26:14.269Z,6.35
2022-08-26T12:28:47.198Z,7.05
2022-08-26T12:31:25.342Z,7.45
2022-08-26T12:33:55.226Z,7.28
2022-08-26T12:36:28.624Z,6.78
2022-08-26T12:38:58.556Z,7.22
2022-08-26T12:41:46.567Z,6.22
2022-08-26T12:44:53.628Z,5.88
2022-08-26T12:47:33.859Z,6.25
2022-08-26T12:50:19.426Z,6.25
2022-08-26T12:52:57.297Z,7.03
2022-08-26T12:55:29.147Z,7.05
2022-08-26T12:58:21.693Z,6.00
2022-08-26T13:00:50.823Z,6.38
2022-08-26T13:03:43.994Z,6.40
2022-08-26T13:06:16.332Z,5.90
2022-08-26T13:08:46.829Z,5.70
2022-08-26T13:11:20.899Z,5.50
2022-08-26T13:13:51.944Z,7.45
2022-08-26T13:16:22.907Z,7.07
2022-08-26T13:18:55.727Z,6.63
2022-08-26T13:21:26.154Z,5.85
2022-08-26T13:23:55.425Z,6.68
2022-08-26T13:26:24.087Z,6.03
2022-08-26T13:29:01.394Z,6.95
2022-08-26T13:31:32.412Z,6.78
2022-08-26T13:34:04.446Z,6.05
2022-08-26T13:36:33.110Z,6.50
2022-08-26T13:39:01.723Z,6.72
2022-08-26T13:41:32.067Z,6.22
2022-08-26T13:44:00.843Z,7.47
2022-08-26T13:46:30.184Z,6.65
2022-08-26T13:48:59.037Z,6.00
2022-08-26T13:51:29.938Z,6.30
2022-08-26T13:53:58.670Z,6.90
2022-08-26T13:56:29.749Z,6.55
2022-08-26T13:58:58.659Z,7.32
2022-08-26T14:01:27.593Z,7.07
2022-08-26T14:03:56.347Z,6.60
2022-08-26T14:06:25.171Z,7.93
2022-08-26T14:08:55.069Z,6.50
2022-08-26T14:11:25.176Z,7.13
2022-08-26T14:13:54.074Z,6.80
2022-08-26T14:16:27.114Z,6.18
2022-08-26T14:18:56.329Z,7.65
2022-08-26T14:21:26.647Z,6.80
2022-08-26T14:24:00.721Z,7.15
2022-08-26T14:26:30.135Z,7.72
2022-08-26T14:28:59.837Z,8.40
2022-08-26T14:31:29.484Z,9.20
2022-08-26T14:34:00.352Z,9.07
2022-08-26T14:36:33.017Z,8.05
2022-08-26T14:39:06.688Z,9.45
2022-08-26T14:41:39.537Z,9.20
2022-08-26T14:44:13.780Z,8.00
2022-08-26T14:46:45.869Z,8.73
2022-08-26T14:49:15.148Z,8.60
2022-08-26T14:51:43.600Z,7.28
2022-08-26T14:54:13.485Z,7.20
2022-08-26T14:56:46.034Z,7.65
2022-08-26T14:59:15.984Z,8.60
2022-08-26T15:01:44.734Z,8.35
2022-08-26T15:04:13.280Z,10.07
2022-08-26T15:06:42.114Z,8.68
2022-08-26T15:09:12.631Z,7.35
2022-08-26T15:11:41.426Z,7.57
2022-08-26T15:14:14.715Z,7.85
2022-08-26T15:16:49.089Z,8.23
2022-08-26T15:19:18.434Z,6.00
2022-08-26T15:21:47.556Z,7.30
2022-08-26T15:24:19.798Z,6.70
2022-08-26T15:26:49.607Z,8.30
2022-08-26T15:29:18.648Z,9.32
2022-08-26T15:31:47.845Z,9.95
2022-08-26T15:34:17.320Z,9.18
2022-08-26T15:36:47.114Z,10.32
2022-08-26T15:39:18.177Z,10.82
2022-08-26T15:41:47.186Z,9.57
2022-08-26T15:44:18.033Z,10.50
2022-08-26T15:46:46.769Z,15.90
2022-08-26T15:49:17.523Z,10.77
2022-08-26T15:51:48.275Z,7.80
2022-08-26T15:54:20.029Z,7.25
2022-08-26T15:56:50.800Z,8.05
2022-08-26T15:59:20.688Z,8.00
2022-08-26T16:01:49.447Z,7.72
2022-08-26T16:04:18.785Z,7.35
2022-08-26T16:06:50.532Z,11.07
2022-08-26T16:09:21.233Z,8.52
2022-08-26T16:11:49.692Z,7.63
2022-08-26T16:14:18.170Z,7.53
2022-08-26T16:16:47.297Z,7.78
2022-08-26T16:19:15.985Z,7.35
2022-08-26T16:21:45.203Z,7.97
2022-08-26T16:24:14.407Z,9.05
2022-08-26T16:26:45.724Z,9.20
2022-08-26T16:29:16.163Z,7.88
2022-08-26T16:31:44.709Z,7.85
2022-08-26T16:34:13.237Z,7.05
2022-08-26T16:36:41.713Z,8.00
2022-08-26T16:39:10.718Z,7.93
2022-08-26T16:41:39.262Z,8.23
2022-08-26T16:44:11.569Z,7.82
2022-08-26T16:46:41.345Z,8.48
2022-08-26T16:49:09.882Z,8.25
2022-08-26T16:51:38.582Z,9.13
2022-08-26T16:54:08.950Z,8.45
2022-08-26T16:56:38.350Z,8.30
2022-08-26T16:59:11.740Z,7.97
2022-08-26T17:01:40.380Z,7.72
2022-08-26T17:04:08.936Z,7.43
2022-08-26T17:06:38.344Z,9.18
2022-08-26T17:09:07.174Z,7.53
2022-08-26T17:11:35.572Z,7.90
2022-08-26T17:14:04.318Z,8.75
2022-08-26T17:16:34.230Z,8.35
2022-08-26T17:19:04.605Z,7.60
2022-08-26T17:21:34.479Z,7.57
2022-08-26T17:24:03.382Z,8.60
2022-08-26T17:26:32.031Z,8.18
2022-08-26T17:29:00.587Z,7.97
2022-08-26T17:31:29.162Z,8.88
2022-08-26T17:33:59.200Z,7.88
2022-08-26T17:36:28.484Z,8.43
2022-08-26T17:38:58.340Z,8.45
2022-08-26T17:41:28.048Z,8.15
2022-08-26T17:43:57.207Z,8.85
2022-08-26T17:46:26.017Z,7.57
2022-08-26T17:48:54.523Z,7.32
2022-08-26T17:51:25.563Z,7.70
2022-08-26T17:53:54.659Z,7.32
2022-08-26T17:56:25.996Z,8.75
2022-08-26T17:58:56.925Z,8.07
2022-08-26T18:01:27.393Z,7.43
2022-08-26T18:04:00.269Z,8.30
2022-08-26T18:06:31.793Z,7.95
2022-08-26T18:09:00.549Z,7.43
2022-08-26T18:11:29.902Z,8.95
2022-08-26T18:14:00.018Z,8.25
2022-08-26T18:16:33.735Z,7.80
2022-08-26T18:19:02.191Z,10.48
2022-08-26T18:21:32.134Z,11.50
2022-08-26T18:24:00.566Z,12.02
2022-08-26T18:26:31.297Z,10.80
2022-08-26T18:29:00.364Z,10.85
2022-08-26T18:31:29.587Z,9.35
2022-08-26T18:34:00.340Z,9.05
2022-08-26T18:36:31.027Z,9.38
2022-08-26T18:39:01.512Z,10.80
2022-08-26T18:41:32.382Z,10.02
2022-08-26T18:44:01.046Z,10.23
2022-08-26T18:46:29.840Z,11.27
2022-08-26T18:48:58.577Z,10.25
2022-08-26T18:51:30.138Z,10.05
2022-08-26T18:53:58.959Z,11.27
2022-08-26T18:56:29.324Z,9.95
2022-08-26T18:58:58.444Z,10.75
2022-08-26T19:01:27.880Z,11.85
2022-08-26T19:03:56.828Z,11.88
2022-08-26T19:06:27.622Z,11.32
2022-08-26T19:08:58.010Z,13.80
2022-08-26T19:11:31.353Z,13.48
2022-08-26T19:14:01.694Z,13.50
2022-08-26T19:16:31.335Z,13.50
2022-08-26T19:19:01.514Z,13.55
2022-08-26T19:21:30.997Z,12.70
2022-08-26T19:24:01.117Z,14.20
2022-08-26T19:26:32.406Z,14.57
2022-08-26T19:29:01.567Z,18.02
2022-08-26T19:31:30.123Z,17.63
2022-08-26T19:33:59.638Z,17.85
2022-08-26T19:36:29.579Z,18.25
2022-08-26T19:38:58.239Z,18.20
2022-08-26T19:41:37.212Z,19.02
2022-08-26T19:44:10.366Z,18.35
2022-08-26T19:49:12.447Z,18.17
2022-08-26T19:51:40.874Z,17.55
2022-08-26T19:54:09.365Z,16.45
2022-08-26T19:56:37.914Z,17.00
2022-08-26T19:59:07.742Z,16.35
2022-08-26T20:01:36.279Z,15.30
2022-08-26T20:04:05.171Z,11.25
2022-08-26T20:06:33.618Z,11.80
2022-08-26T20:09:02.035Z,11.35
2022-08-26T20:11:31.268Z,13.38
2022-08-26T20:13:59.845Z,14.48
2022-08-26T20:16:29.802Z,15.02
2022-08-26T20:19:24.126Z,13.70
2022-08-26T20:21:52.590Z,12.90
2022-08-26T20:24:22.201Z,13.40
2022-08-26T20:26:51.114Z,12.20
2022-08-26T20:29:20.200Z,14.15
2022-08-26T20:31:52.546Z,13.23
2022-08-26T20:34:21.245Z,14.02
2022-08-26T20:36:51.493Z,14.32
2022-08-26T20:39:21.325Z,16.30
2022-08-26T20:41:50.192Z,14.77
2022-08-26T20:44:19.058Z,15.88
2022-08-26T20:46:47.610Z,15.68
2022-08-26T20:49:18.326Z,16.75
2022-08-26T20:51:50.902Z,16.48
2022-08-26T20:54:21.505Z,17.73
2022-08-26T20:56:52.078Z,15.77
2022-08-26T20:59:23.065Z,14.85
2022-08-26T21:01:51.781Z,13.85
2022-08-26T21:04:24.320Z,15.05
2022-08-26T21:06:54.499Z,16.30
2022-08-26T21:09:25.193Z,12.93
2022-08-26T21:11:54.868Z,13.13
2022-08-26T21:14:26.012Z,12.57
2022-08-26T21:16:54.885Z,14.10
2022-08-26T21:19:25.030Z,12.18
2022-08-26T21:21:53.548Z,14.60
2022-08-26T21:24:22.476Z,13.73
2022-08-26T21:26:51.226Z,14.40
2022-08-26T21:29:22.139Z,14.30
2022-08-26T21:31:50.974Z,13.45
2022-08-26T21:34:20.409Z,14.38
2022-08-26T21:36:50.901Z,13.27
2022-08-26T21:39:20.008Z,14.10
2022-08-26T21:41:48.648Z,14.02
2022-08-26T21:44:18.771Z,14.15
2022-08-26T21:46:47.657Z,13.18
2022-08-26T21:49:17.884Z,14.73
2022-08-26T21:51:48.472Z,14.65
2022-08-26T21:54:19.310Z,13.50
2022-08-26T21:56:48.402Z,13.38
2022-08-26T21:59:19.762Z,14.05
2022-08-26T22:01:48.662Z,13.75
2022-08-26T22:04:17.512Z,14.35
2022-08-26T22:06:47.907Z,12.85
2022-08-26T22:09:21.234Z,13.98
2022-08-26T22:11:50.326Z,14.48
2022-08-26T22:14:30.189Z,13.35
2022-08-26T22:17:00.343Z,12.82
2022-08-26T22:19:30.005Z,14.00
2022-08-26T22:21:58.910Z,12.30
2022-08-26T22:24:28.944Z,14.57
2022-08-26T22:26:58.190Z,13.25
2022-08-26T22:29:27.289Z,12.63
2022-08-26T22:31:55.813Z,12.98
2022-08-26T22:34:24.375Z,12.30
2022-08-26T22:36:52.857Z,12.93
2022-08-26T22:39:24.011Z,12.90
2022-08-26T22:41:55.377Z,13.23
2022-08-26T22:44:24.304Z,14.40
2022-08-26T22:46:55.621Z,13.38
2022-08-26T22:49:25.129Z,14.07
2022-08-26T22:51:53.653Z,13.77
2022-08-26T22:54:22.277Z,13.80
2022-08-26T22:56:50.748Z,14.45
2022-08-26T22:59:20.697Z,14.23
2022-08-26T23:01:49.359Z,14.35
2022-08-26T23:04:17.804Z,14.77
2022-08-26T23:06:47.816Z,13.85
2022-08-26T23:09:18.200Z,14.60
2022-08-26T23:11:47.613Z,14.02
2022-08-26T23:14:17.733Z,12.95
2022-08-26T23:16:47.888Z,13.30
2022-08-26T23:19:18.398Z,12.20
2022-08-26T23:21:47.293Z,13.80
2022-08-26T23:24:15.943Z,14.10
2022-08-26T23:26:45.809Z,13.85
2022-08-26T23:29:16.056Z,14.35
2022-08-26T23:31:44.903Z,14.82
2022-08-26T23:34:33.207Z,13.85
2022-08-26T23:37:02.081Z,14.25
2022-08-26T23:39:35.479Z,15.30
2022-08-26T23:42:04.105Z,13.10
2022-08-26T23:44:33.930Z,14.27
2022-08-26T23:47:02.521Z,14.80
2022-08-26T23:49:32.733Z,13.50
2022-08-26T23:52:19.165Z,14.13
2022-08-26T23:54:48.824Z,13.75
2022-08-26T23:57:19.858Z,14.18
2022-08-26T23:59:48.690Z,15.85
